OAS9630 SKBO-SKCG
Flight info
| Callsign | OAS9630 |
|---|---|
| Flight time | 1h 35m |
| Altitude | 21000 |
| Route | OSUSU4R GIKPU UQ120 DIBAM UW10 UGREB UGREB3B |
| Aircraft | AT76/M-SDFGIRY/S |
Departure
| Time | 2026-05-06 18:25 |
|---|---|
| Airport | El Dorado International Airport (SKBO) |
Arrival
| Time | 2026-05-06 20:01 |
|---|---|
| Airport | Rafael Nuñez International Airport (SKCG) |
| Time | Latitude | Longitude | Altitude | Speed | Heading |
|---|---|---|---|---|---|
| 2026-05-06 17:40 | 4.69429 | -74.13410 | 8362 ft | 0 kts | 307° |
| 2026-05-06 18:08 | 4.69420 | -74.13397 | 8362 ft | 4 kts | 320° |
| 2026-05-06 18:08 | 4.69397 | -74.13386 | 8362 ft | 4 kts | 2° |
| 2026-05-06 18:08 | 4.69372 | -74.13393 | 8362 ft | 4 kts | 32° |
| 2026-05-06 18:09 | 4.69364 | -74.13399 | 8362 ft | 4 kts | 37° |
| 2026-05-06 18:09 | 4.69386 | -74.13383 | 8362 ft | 4 kts | 37° |
| 2026-05-06 18:09 | 4.69398 | -74.13373 | 8362 ft | 0 kts | 37° |
| 2026-05-06 18:13 | 4.69399 | -74.13372 | 8362 ft | 1 kts | 36° |
| 2026-05-06 18:14 | 4.69415 | -74.13361 | 8362 ft | 4 kts | 36° |
| 2026-05-06 18:14 | 4.69442 | -74.13341 | 8362 ft | 6 kts | 37° |
| 2026-05-06 18:14 | 4.69476 | -74.13316 | 8362 ft | 7 kts | 37° |
| 2026-05-06 18:14 | 4.69514 | -74.13286 | 8362 ft | 7 kts | 38° |
| 2026-05-06 18:15 | 4.69546 | -74.13271 | 8362 ft | 4 kts | 1° |
| 2026-05-06 18:15 | 4.69587 | -74.13276 | 8362 ft | 9 kts | 352° |
| 2026-05-06 18:15 | 4.69653 | -74.13304 | 8363 ft | 12 kts | 309° |
| 2026-05-06 18:15 | 4.69714 | -74.13385 | 8362 ft | 17 kts | 307° |
| 2026-05-06 18:16 | 4.69787 | -74.13481 | 8363 ft | 18 kts | 306° |
| 2026-05-06 18:16 | 4.69869 | -74.13590 | 8363 ft | 21 kts | 308° |
| 2026-05-06 18:16 | 4.69960 | -74.13708 | 8362 ft | 22 kts | 307° |
| 2026-05-06 18:16 | 4.70049 | -74.13826 | 8362 ft | 21 kts | 308° |
| 2026-05-06 18:17 | 4.70139 | -74.13944 | 8362 ft | 22 kts | 306° |
| 2026-05-06 18:17 | 4.70231 | -74.14067 | 8362 ft | 23 kts | 308° |
| 2026-05-06 18:17 | 4.70329 | -74.14196 | 8362 ft | 21 kts | 307° |
| 2026-05-06 18:17 | 4.70414 | -74.14309 | 8363 ft | 21 kts | 307° |
| 2026-05-06 18:18 | 4.70503 | -74.14426 | 8363 ft | 22 kts | 308° |
| 2026-05-06 18:18 | 4.70589 | -74.14540 | 8363 ft | 21 kts | 307° |
| 2026-05-06 18:18 | 4.70677 | -74.14657 | 8363 ft | 21 kts | 307° |
| 2026-05-06 18:18 | 4.70765 | -74.14774 | 8363 ft | 21 kts | 307° |
| 2026-05-06 18:19 | 4.70857 | -74.14893 | 8363 ft | 22 kts | 308° |
| 2026-05-06 18:19 | 4.70919 | -74.14976 | 8363 ft | 23 kts | 306° |
| 2026-05-06 18:19 | 4.71016 | -74.15105 | 8362 ft | 23 kts | 307° |
| 2026-05-06 18:19 | 4.71105 | -74.15212 | 8363 ft | 17 kts | 330° |
| 2026-05-06 18:20 | 4.71210 | -74.15220 | 8363 ft | 11 kts | 354° |
| 2026-05-06 18:20 | 4.71215 | -74.15220 | 8363 ft | 0 kts | 354° |
| 2026-05-06 18:21 | 4.71233 | -74.15222 | 8363 ft | 6 kts | 354° |
| 2026-05-06 18:21 | 4.71291 | -74.15220 | 8363 ft | 9 kts | 18° |
| 2026-05-06 18:21 | 4.71318 | -74.15193 | 8362 ft | 1 kts | 81° |
| 2026-05-06 18:21 | 4.71318 | -74.15187 | 8362 ft | 1 kts | 91° |
| 2026-05-06 18:22 | 4.71317 | -74.15184 | 8362 ft | 0 kts | 97° |
| 2026-05-06 18:22 | 4.71317 | -74.15182 | 8362 ft | 1 kts | 101° |
| 2026-05-06 18:22 | 4.71315 | -74.15177 | 8362 ft | 0 kts | 109° |
| 2026-05-06 18:22 | 4.71314 | -74.15175 | 8362 ft | 3 kts | 114° |
| 2026-05-06 18:23 | 4.71300 | -74.15155 | 8362 ft | 4 kts | 126° |
| 2026-05-06 18:23 | 4.71299 | -74.15154 | 8362 ft | 0 kts | 126° |
| 2026-05-06 18:24 | 4.71243 | -74.15078 | 8362 ft | 30 kts | 126° |
| 2026-05-06 18:24 | 4.71036 | -74.14795 | 8361 ft | 74 kts | 126° |
| 2026-05-06 18:24 | 4.70643 | -74.14261 | 8364 ft | 114 kts | 128° |
| 2026-05-06 18:24 | 4.70156 | -74.13536 | 8541 ft | 127 kts | 123° |
| 2026-05-06 18:25 | 4.69724 | -74.12787 | 8916 ft | 124 kts | 114° |
| 2026-05-06 18:25 | 4.69650 | -74.11898 | 9174 ft | 135 kts | 78° |
| 2026-05-06 18:25 | 4.70103 | -74.11077 | 9674 ft | 140 kts | 46° |
| 2026-05-06 18:25 | 4.71007 | -74.10668 | 10122 ft | 145 kts | 21° |
| 2026-05-06 18:26 | 4.72006 | -74.10825 | 10511 ft | 156 kts | 326° |
| 2026-05-06 18:26 | 4.72865 | -74.11478 | 10864 ft | 155 kts | 351° |
| 2026-05-06 18:26 | 4.73829 | -74.11336 | 11304 ft | 139 kts | 32° |
| 2026-05-06 18:26 | 4.74749 | -74.11023 | 11798 ft | 139 kts | 26° |
| 2026-05-06 18:27 | 4.75690 | -74.10684 | 11983 ft | 153 kts | 28° |
| 2026-05-06 18:27 | 4.76741 | -74.10258 | 12025 ft | 173 kts | 28° |
| 2026-05-06 18:27 | 4.77903 | -74.09765 | 12041 ft | 190 kts | 30° |
| 2026-05-06 18:27 | 4.79104 | -74.09116 | 12114 ft | 201 kts | 36° |
| 2026-05-06 18:28 | 4.80308 | -74.08384 | 12316 ft | 204 kts | 37° |
| 2026-05-06 18:28 | 4.81510 | -74.07618 | 12538 ft | 202 kts | 43° |
| 2026-05-06 18:28 | 4.82522 | -74.06690 | 12828 ft | 199 kts | 50° |
| 2026-05-06 18:28 | 4.83506 | -74.05702 | 13048 ft | 201 kts | 50° |
| 2026-05-06 18:29 | 4.84357 | -74.04867 | 13264 ft | 202 kts | 48° |
| 2026-05-06 18:29 | 4.85473 | -74.03993 | 13482 ft | 208 kts | 28° |
| 2026-05-06 18:29 | 4.86854 | -74.03544 | 13658 ft | 212 kts | 21° |
| 2026-05-06 18:29 | 4.88248 | -74.03150 | 13860 ft | 214 kts | 22° |
| 2026-05-06 18:30 | 4.89664 | -74.02740 | 14074 ft | 214 kts | 22° |
| 2026-05-06 18:30 | 4.91086 | -74.02309 | 14281 ft | 213 kts | 24° |
| 2026-05-06 18:30 | 4.92496 | -74.01843 | 14461 ft | 213 kts | 24° |
| 2026-05-06 18:30 | 4.93900 | -74.01370 | 14641 ft | 213 kts | 24° |
| 2026-05-06 18:31 | 4.95316 | -74.00891 | 14836 ft | 213 kts | 24° |
| 2026-05-06 18:31 | 4.96720 | -74.00414 | 15028 ft | 214 kts | 24° |
| 2026-05-06 18:31 | 4.98128 | -73.99935 | 15206 ft | 214 kts | 24° |
| 2026-05-06 18:31 | 4.99546 | -73.99454 | 15384 ft | 214 kts | 24° |
| 2026-05-06 18:32 | 5.00959 | -73.98979 | 15551 ft | 215 kts | 24° |
| 2026-05-06 18:32 | 5.02271 | -73.98539 | 15690 ft | 216 kts | 24° |
| 2026-05-06 18:32 | 5.03696 | -73.98127 | 15858 ft | 217 kts | 20° |
| 2026-05-06 18:32 | 5.05173 | -73.97768 | 16015 ft | 218 kts | 18° |
| 2026-05-06 18:33 | 5.06649 | -73.97425 | 16160 ft | 218 kts | 19° |
| 2026-05-06 18:33 | 5.08115 | -73.97083 | 16306 ft | 219 kts | 19° |
| 2026-05-06 18:33 | 5.09606 | -73.96731 | 16464 ft | 219 kts | 19° |
| 2026-05-06 18:33 | 5.11088 | -73.96375 | 16627 ft | 221 kts | 19° |
| 2026-05-06 18:34 | 5.12600 | -73.95999 | 16665 ft | 225 kts | 19° |
| 2026-05-06 18:34 | 5.14113 | -73.95614 | 16683 ft | 230 kts | 20° |
| 2026-05-06 18:34 | 5.15680 | -73.95210 | 16692 ft | 234 kts | 20° |
| 2026-05-06 18:34 | 5.17298 | -73.94788 | 16696 ft | 239 kts | 19° |
| 2026-05-06 18:35 | 5.18905 | -73.94377 | 16696 ft | 244 kts | 19° |
| 2026-05-06 18:35 | 5.20572 | -73.93961 | 16711 ft | 249 kts | 19° |
| 2026-05-06 18:35 | 5.22240 | -73.93547 | 16693 ft | 252 kts | 19° |
| 2026-05-06 18:35 | 5.23738 | -73.93175 | 16677 ft | 253 kts | 19° |
| 2026-05-06 18:36 | 5.25455 | -73.92744 | 16669 ft | 253 kts | 19° |
| 2026-05-06 18:36 | 5.27141 | -73.92327 | 16863 ft | 247 kts | 19° |
| 2026-05-06 18:36 | 5.28802 | -73.91925 | 17021 ft | 243 kts | 19° |
| 2026-05-06 18:36 | 5.30446 | -73.91531 | 17191 ft | 240 kts | 19° |
| 2026-05-06 18:37 | 5.32039 | -73.91152 | 17367 ft | 237 kts | 19° |
| 2026-05-06 18:37 | 5.33634 | -73.90765 | 17548 ft | 235 kts | 19° |
| 2026-05-06 18:37 | 5.35219 | -73.90373 | 17703 ft | 232 kts | 19° |
| 2026-05-06 18:37 | 5.36785 | -73.89983 | 17891 ft | 230 kts | 19° |
| 2026-05-06 18:38 | 5.38314 | -73.89599 | 18040 ft | 228 kts | 19° |
| 2026-05-06 18:38 | 5.39821 | -73.89222 | 18204 ft | 224 kts | 19° |
| 2026-05-06 18:38 | 5.41340 | -73.88840 | 18387 ft | 222 kts | 19° |
| 2026-05-06 18:38 | 5.42837 | -73.88469 | 18537 ft | 220 kts | 19° |
| 2026-05-06 18:39 | 5.44324 | -73.88100 | 18706 ft | 220 kts | 20° |
| 2026-05-06 18:39 | 5.45648 | -73.87768 | 18840 ft | 220 kts | 18° |
| 2026-05-06 18:39 | 5.47130 | -73.87394 | 19007 ft | 220 kts | 19° |
| 2026-05-06 18:40 | 5.50104 | -73.86634 | 19311 ft | 221 kts | 19° |
| 2026-05-06 18:40 | 5.51592 | -73.86252 | 19472 ft | 221 kts | 19° |
| 2026-05-06 18:40 | 5.53083 | -73.85877 | 19622 ft | 221 kts | 18° |
| 2026-05-06 18:40 | 5.54608 | -73.85537 | 19643 ft | 227 kts | 17° |
| 2026-05-06 18:41 | 5.56173 | -73.85218 | 19650 ft | 232 kts | 16° |
| 2026-05-06 18:41 | 5.57762 | -73.84900 | 19723 ft | 233 kts | 15° |
| 2026-05-06 18:41 | 5.59359 | -73.84578 | 19810 ft | 233 kts | 16° |
| 2026-05-06 18:41 | 5.60887 | -73.84268 | 19887 ft | 233 kts | 16° |
| 2026-05-06 18:42 | 5.62463 | -73.83951 | 19973 ft | 234 kts | 15° |
| 2026-05-06 18:42 | 5.64063 | -73.83628 | 20070 ft | 234 kts | 15° |
| 2026-05-06 18:42 | 5.65621 | -73.83311 | 20158 ft | 234 kts | 16° |
| 2026-05-06 18:42 | 5.67052 | -73.83021 | 20225 ft | 235 kts | 15° |
| 2026-05-06 18:43 | 5.68657 | -73.82696 | 20326 ft | 235 kts | 15° |
| 2026-05-06 18:43 | 5.70254 | -73.82365 | 20396 ft | 235 kts | 15° |
| 2026-05-06 18:43 | 5.71694 | -73.82066 | 20471 ft | 236 kts | 16° |
| 2026-05-06 18:43 | 5.73302 | -73.81733 | 20549 ft | 236 kts | 15° |
| 2026-05-06 18:44 | 5.74907 | -73.81400 | 20636 ft | 236 kts | 15° |
| 2026-05-06 18:44 | 5.76506 | -73.81069 | 20725 ft | 236 kts | 15° |
| 2026-05-06 18:44 | 5.78110 | -73.80737 | 20815 ft | 236 kts | 15° |
| 2026-05-06 18:44 | 5.79723 | -73.80404 | 20909 ft | 236 kts | 15° |
| 2026-05-06 18:45 | 5.81346 | -73.80066 | 20972 ft | 238 kts | 15° |
| 2026-05-06 18:45 | 5.82975 | -73.79726 | 20985 ft | 241 kts | 15° |
| 2026-05-06 18:45 | 5.84627 | -73.79377 | 21005 ft | 243 kts | 15° |
| 2026-05-06 18:45 | 5.86293 | -73.79034 | 21016 ft | 246 kts | 15° |
| 2026-05-06 18:46 | 5.87960 | -73.78690 | 21012 ft | 248 kts | 15° |
| 2026-05-06 18:46 | 5.89662 | -73.78339 | 21014 ft | 251 kts | 15° |
| 2026-05-06 18:46 | 5.91380 | -73.77988 | 21013 ft | 253 kts | 15° |
| 2026-05-06 18:46 | 5.93110 | -73.77631 | 21009 ft | 254 kts | 15° |
| 2026-05-06 18:47 | 5.94765 | -73.77288 | 21006 ft | 256 kts | 15° |
| 2026-05-06 18:47 | 5.96409 | -73.76950 | 20998 ft | 257 kts | 15° |
| 2026-05-06 18:47 | 5.97984 | -73.76626 | 21002 ft | 257 kts | 15° |
| 2026-05-06 18:47 | 5.99737 | -73.76267 | 21001 ft | 258 kts | 15° |
| 2026-05-06 18:48 | 6.01491 | -73.75906 | 20994 ft | 259 kts | 15° |
| 2026-05-06 18:48 | 6.03257 | -73.75540 | 20983 ft | 260 kts | 15° |
| 2026-05-06 18:48 | 6.04819 | -73.75220 | 20983 ft | 260 kts | 15° |
| 2026-05-06 18:48 | 6.06584 | -73.74863 | 20974 ft | 258 kts | 14° |
| 2026-05-06 18:49 | 6.08351 | -73.74509 | 20984 ft | 258 kts | 15° |
| 2026-05-06 18:49 | 6.10111 | -73.74151 | 20984 ft | 257 kts | 15° |
| 2026-05-06 18:49 | 6.11839 | -73.73802 | 20984 ft | 257 kts | 15° |
| 2026-05-06 18:49 | 6.13606 | -73.73442 | 20983 ft | 258 kts | 15° |
| 2026-05-06 18:50 | 6.15365 | -73.73076 | 20968 ft | 258 kts | 15° |
| 2026-05-06 18:50 | 6.17126 | -73.72711 | 20966 ft | 258 kts | 15° |
| 2026-05-06 18:50 | 6.18882 | -73.72352 | 20960 ft | 258 kts | 15° |
| 2026-05-06 18:50 | 6.20643 | -73.71991 | 20968 ft | 257 kts | 15° |
| 2026-05-06 18:51 | 6.22395 | -73.71632 | 20964 ft | 257 kts | 15° |
| 2026-05-06 18:51 | 6.24152 | -73.71273 | 20975 ft | 257 kts | 14° |
| 2026-05-06 18:51 | 6.25912 | -73.70912 | 20962 ft | 258 kts | 15° |
| 2026-05-06 18:51 | 6.27654 | -73.70555 | 20958 ft | 259 kts | 14° |
| 2026-05-06 18:52 | 6.29194 | -73.70241 | 20947 ft | 259 kts | 15° |
| 2026-05-06 18:52 | 6.30937 | -73.69881 | 20946 ft | 258 kts | 14° |
| 2026-05-06 18:52 | 6.32692 | -73.69519 | 20949 ft | 258 kts | 14° |
| 2026-05-06 18:52 | 6.34459 | -73.69154 | 20946 ft | 258 kts | 14° |
| 2026-05-06 18:53 | 6.36215 | -73.68792 | 20937 ft | 258 kts | 15° |
| 2026-05-06 18:53 | 6.37974 | -73.68430 | 20939 ft | 258 kts | 14° |
| 2026-05-06 18:53 | 6.39734 | -73.68067 | 20936 ft | 258 kts | 14° |
| 2026-05-06 18:53 | 6.41495 | -73.67704 | 20933 ft | 258 kts | 14° |
| 2026-05-06 18:54 | 6.43254 | -73.67341 | 20933 ft | 258 kts | 14° |
| 2026-05-06 18:54 | 6.45015 | -73.66978 | 20930 ft | 258 kts | 14° |
| 2026-05-06 18:54 | 6.46748 | -73.66624 | 20928 ft | 258 kts | 14° |
| 2026-05-06 18:54 | 6.48506 | -73.66266 | 20918 ft | 257 kts | 14° |
| 2026-05-06 18:55 | 6.50261 | -73.65900 | 20923 ft | 257 kts | 15° |
| 2026-05-06 18:55 | 6.52005 | -73.65537 | 20922 ft | 257 kts | 14° |
| 2026-05-06 18:55 | 6.53762 | -73.65175 | 20926 ft | 257 kts | 14° |
| 2026-05-06 18:55 | 6.55509 | -73.64816 | 20923 ft | 257 kts | 14° |
| 2026-05-06 18:56 | 6.57268 | -73.64453 | 20918 ft | 257 kts | 14° |
| 2026-05-06 18:56 | 6.59019 | -73.64093 | 20919 ft | 257 kts | 14° |
| 2026-05-06 18:56 | 6.60765 | -73.63733 | 20920 ft | 257 kts | 14° |
| 2026-05-06 18:56 | 6.62515 | -73.63372 | 20919 ft | 257 kts | 14° |
| 2026-05-06 18:57 | 6.64253 | -73.63012 | 20917 ft | 257 kts | 14° |
| 2026-05-06 18:57 | 6.66005 | -73.62651 | 20920 ft | 257 kts | 14° |
| 2026-05-06 18:57 | 6.67762 | -73.62290 | 20919 ft | 258 kts | 14° |
| 2026-05-06 18:57 | 6.69529 | -73.61924 | 20916 ft | 258 kts | 14° |
| 2026-05-06 18:58 | 6.71285 | -73.61561 | 20909 ft | 258 kts | 14° |
| 2026-05-06 18:58 | 6.73054 | -73.61198 | 20909 ft | 258 kts | 14° |
| 2026-05-06 18:58 | 6.74813 | -73.60834 | 20908 ft | 258 kts | 14° |
| 2026-05-06 18:58 | 6.76536 | -73.60480 | 20896 ft | 257 kts | 14° |
| 2026-05-06 18:59 | 6.78303 | -73.60113 | 20904 ft | 257 kts | 14° |
| 2026-05-06 18:59 | 6.80054 | -73.59753 | 20902 ft | 257 kts | 14° |
| 2026-05-06 18:59 | 6.81803 | -73.59393 | 20898 ft | 257 kts | 14° |
| 2026-05-06 18:59 | 6.83565 | -73.59029 | 20896 ft | 256 kts | 14° |
| 2026-05-06 19:00 | 6.85313 | -73.58669 | 20898 ft | 256 kts | 14° |
| 2026-05-06 19:00 | 6.87062 | -73.58315 | 20894 ft | 256 kts | 14° |
| 2026-05-06 19:00 | 6.88781 | -73.57952 | 20898 ft | 256 kts | 14° |
| 2026-05-06 19:00 | 6.89963 | -73.57705 | 20894 ft | 256 kts | 14° |
| 2026-05-06 19:01 | 6.92286 | -73.57225 | 20889 ft | 256 kts | 14° |
| 2026-05-06 19:01 | 6.94036 | -73.56865 | 20886 ft | 256 kts | 14° |
| 2026-05-06 19:01 | 6.95784 | -73.56504 | 20869 ft | 256 kts | 14° |
| 2026-05-06 19:01 | 6.97526 | -73.56149 | 20889 ft | 256 kts | 14° |
| 2026-05-06 19:02 | 6.99302 | -73.55966 | 20890 ft | 258 kts | 1° |
| 2026-05-06 19:02 | 7.01078 | -73.56083 | 20886 ft | 258 kts | 358° |
| 2026-05-06 19:02 | 7.02880 | -73.56255 | 20892 ft | 258 kts | 358° |
| 2026-05-06 19:02 | 7.04682 | -73.56407 | 20890 ft | 258 kts | 359° |
| 2026-05-06 19:03 | 7.06453 | -73.56507 | 20884 ft | 258 kts | 0° |
| 2026-05-06 19:03 | 7.08250 | -73.56584 | 20884 ft | 259 kts | 0° |
| 2026-05-06 19:03 | 7.10051 | -73.56670 | 20881 ft | 259 kts | 0° |
| 2026-05-06 19:03 | 7.11856 | -73.56756 | 20880 ft | 259 kts | 0° |
| 2026-05-06 19:04 | 7.13661 | -73.56841 | 20881 ft | 259 kts | 0° |
| 2026-05-06 19:04 | 7.15447 | -73.56927 | 20879 ft | 259 kts | 0° |
| 2026-05-06 19:04 | 7.17253 | -73.57011 | 20877 ft | 260 kts | 0° |
| 2026-05-06 19:04 | 7.19058 | -73.57099 | 20876 ft | 260 kts | 0° |
| 2026-05-06 19:05 | 7.20255 | -73.57156 | 20873 ft | 260 kts | 0° |
| 2026-05-06 19:05 | 7.22060 | -73.57241 | 20871 ft | 260 kts | 0° |
| 2026-05-06 19:05 | 7.23866 | -73.57329 | 20871 ft | 260 kts | 0° |
| 2026-05-06 19:05 | 7.25674 | -73.57416 | 20872 ft | 260 kts | 0° |
| 2026-05-06 19:06 | 7.27490 | -73.57503 | 20868 ft | 260 kts | 0° |
| 2026-05-06 19:06 | 7.29307 | -73.57588 | 20869 ft | 260 kts | 0° |
| 2026-05-06 19:06 | 7.31112 | -73.57675 | 20868 ft | 260 kts | 0° |
| 2026-05-06 19:06 | 7.32922 | -73.57763 | 20865 ft | 260 kts | 0° |
| 2026-05-06 19:07 | 7.34740 | -73.57849 | 20864 ft | 261 kts | 0° |
| 2026-05-06 19:07 | 7.36546 | -73.57935 | 20865 ft | 261 kts | 0° |
| 2026-05-06 19:07 | 7.38368 | -73.58023 | 20866 ft | 261 kts | 0° |
| 2026-05-06 19:07 | 7.40155 | -73.58108 | 20861 ft | 261 kts | 0° |
| 2026-05-06 19:08 | 7.41972 | -73.58195 | 20864 ft | 261 kts | 0° |
| 2026-05-06 19:08 | 7.43787 | -73.58283 | 20868 ft | 261 kts | 0° |
| 2026-05-06 19:08 | 7.45602 | -73.58368 | 20860 ft | 261 kts | 0° |
| 2026-05-06 19:08 | 7.47424 | -73.58456 | 20859 ft | 261 kts | 0° |
| 2026-05-06 19:09 | 7.49237 | -73.58544 | 20859 ft | 261 kts | 0° |
| 2026-05-06 19:09 | 7.51031 | -73.58628 | 20861 ft | 261 kts | 0° |
| 2026-05-06 19:09 | 7.52849 | -73.58715 | 20864 ft | 261 kts | 0° |
| 2026-05-06 19:09 | 7.54664 | -73.58802 | 20862 ft | 261 kts | 0° |
| 2026-05-06 19:10 | 7.56469 | -73.58889 | 20858 ft | 261 kts | 0° |
| 2026-05-06 19:10 | 7.58292 | -73.58975 | 20859 ft | 261 kts | 360° |
| 2026-05-06 19:10 | 7.60100 | -73.59063 | 20859 ft | 261 kts | 0° |
| 2026-05-06 19:10 | 7.61921 | -73.59151 | 20861 ft | 261 kts | 360° |
| 2026-05-06 19:11 | 7.63740 | -73.59238 | 20860 ft | 261 kts | 0° |
| 2026-05-06 19:11 | 7.65554 | -73.59325 | 20858 ft | 261 kts | 0° |
| 2026-05-06 19:11 | 7.67336 | -73.59409 | 20863 ft | 261 kts | 0° |
| 2026-05-06 19:11 | 7.69161 | -73.59498 | 20860 ft | 261 kts | 0° |
| 2026-05-06 19:12 | 7.70973 | -73.59583 | 20862 ft | 261 kts | 360° |
| 2026-05-06 19:12 | 7.72776 | -73.59671 | 20862 ft | 261 kts | 360° |
| 2026-05-06 19:12 | 7.74602 | -73.59756 | 20862 ft | 260 kts | 0° |
| 2026-05-06 19:12 | 7.76405 | -73.59843 | 20860 ft | 260 kts | 360° |
| 2026-05-06 19:13 | 7.78223 | -73.59931 | 20862 ft | 260 kts | 360° |
| 2026-05-06 19:13 | 7.80027 | -73.60018 | 20862 ft | 260 kts | 360° |
| 2026-05-06 19:13 | 7.81838 | -73.60105 | 20864 ft | 260 kts | 0° |
| 2026-05-06 19:13 | 7.83659 | -73.60192 | 20865 ft | 261 kts | 0° |
| 2026-05-06 19:14 | 7.85446 | -73.60278 | 20864 ft | 261 kts | 0° |
| 2026-05-06 19:14 | 7.87278 | -73.60366 | 20863 ft | 261 kts | 0° |
| 2026-05-06 19:14 | 7.89064 | -73.60452 | 20863 ft | 261 kts | 0° |
| 2026-05-06 19:14 | 7.90874 | -73.60539 | 20864 ft | 260 kts | 0° |
| 2026-05-06 19:15 | 7.92679 | -73.60623 | 20862 ft | 260 kts | 0° |
| 2026-05-06 19:15 | 7.94490 | -73.60711 | 20866 ft | 260 kts | 360° |
| 2026-05-06 19:15 | 7.96308 | -73.60797 | 20868 ft | 260 kts | 0° |
| 2026-05-06 19:15 | 7.98119 | -73.60885 | 20868 ft | 260 kts | 360° |
| 2026-05-06 19:16 | 7.99927 | -73.60972 | 20867 ft | 260 kts | 0° |
| 2026-05-06 19:16 | 8.01742 | -73.61059 | 20870 ft | 260 kts | 0° |
| 2026-05-06 19:16 | 8.03528 | -73.61146 | 20870 ft | 260 kts | 0° |
| 2026-05-06 19:16 | 8.05336 | -73.61231 | 20870 ft | 260 kts | 0° |
| 2026-05-06 19:17 | 8.07152 | -73.61319 | 20872 ft | 260 kts | 0° |
| 2026-05-06 19:17 | 8.08959 | -73.61405 | 20872 ft | 260 kts | 0° |
| 2026-05-06 19:17 | 8.10774 | -73.61492 | 20870 ft | 260 kts | 0° |
| 2026-05-06 19:17 | 8.12557 | -73.61579 | 20871 ft | 260 kts | 0° |
| 2026-05-06 19:18 | 8.14366 | -73.61666 | 20871 ft | 260 kts | 0° |
| 2026-05-06 19:18 | 8.16171 | -73.61751 | 20872 ft | 260 kts | 0° |
| 2026-05-06 19:18 | 8.17973 | -73.61839 | 20877 ft | 260 kts | 360° |
| 2026-05-06 19:18 | 8.19783 | -73.61931 | 20876 ft | 260 kts | 360° |
| 2026-05-06 19:19 | 8.21593 | -73.62023 | 20877 ft | 259 kts | 0° |
| 2026-05-06 19:19 | 8.23395 | -73.62104 | 20876 ft | 259 kts | 0° |
| 2026-05-06 19:19 | 8.25197 | -73.62189 | 20876 ft | 259 kts | 359° |
| 2026-05-06 19:19 | 8.26900 | -73.62749 | 20882 ft | 265 kts | 327° |
| 2026-05-06 19:20 | 8.28077 | -73.64185 | 20876 ft | 271 kts | 295° |
| 2026-05-06 19:20 | 8.28499 | -73.66027 | 20871 ft | 270 kts | 280° |
| 2026-05-06 19:20 | 8.28774 | -73.67914 | 20868 ft | 270 kts | 280° |
| 2026-05-06 19:20 | 8.29130 | -73.69749 | 20868 ft | 270 kts | 286° |
| 2026-05-06 19:21 | 8.29683 | -73.71580 | 20866 ft | 269 kts | 292° |
| 2026-05-06 19:21 | 8.30457 | -73.73309 | 20868 ft | 269 kts | 300° |
| 2026-05-06 19:21 | 8.31377 | -73.74917 | 20868 ft | 268 kts | 305° |
| 2026-05-06 19:21 | 8.32489 | -73.76455 | 20869 ft | 267 kts | 312° |
| 2026-05-06 19:22 | 8.33707 | -73.77837 | 20875 ft | 267 kts | 315° |
| 2026-05-06 19:22 | 8.34986 | -73.79199 | 20889 ft | 267 kts | 316° |
| 2026-05-06 19:22 | 8.36276 | -73.80567 | 20898 ft | 267 kts | 316° |
| 2026-05-06 19:22 | 8.37539 | -73.81942 | 20904 ft | 267 kts | 315° |
| 2026-05-06 19:23 | 8.38784 | -73.83334 | 20925 ft | 267 kts | 315° |
| 2026-05-06 19:23 | 8.40023 | -73.84722 | 20930 ft | 267 kts | 315° |
| 2026-05-06 19:23 | 8.41270 | -73.86121 | 20939 ft | 267 kts | 315° |
| 2026-05-06 19:23 | 8.42493 | -73.87493 | 20944 ft | 267 kts | 315° |
| 2026-05-06 19:24 | 8.43741 | -73.88895 | 20956 ft | 267 kts | 315° |
| 2026-05-06 19:24 | 8.44980 | -73.90288 | 20963 ft | 266 kts | 315° |
| 2026-05-06 19:24 | 8.46214 | -73.91672 | 20980 ft | 266 kts | 315° |
| 2026-05-06 19:24 | 8.47461 | -73.93071 | 20985 ft | 266 kts | 315° |
| 2026-05-06 19:25 | 8.48704 | -73.94469 | 20988 ft | 266 kts | 315° |
| 2026-05-06 19:25 | 8.49925 | -73.95840 | 20993 ft | 266 kts | 315° |
| 2026-05-06 19:25 | 8.51165 | -73.97232 | 20995 ft | 266 kts | 315° |
| 2026-05-06 19:25 | 8.52400 | -73.98619 | 21000 ft | 266 kts | 315° |
| 2026-05-06 19:26 | 8.53642 | -74.00017 | 21008 ft | 266 kts | 315° |
| 2026-05-06 19:26 | 8.54887 | -74.01414 | 21016 ft | 266 kts | 315° |
| 2026-05-06 19:26 | 8.56127 | -74.02806 | 21034 ft | 267 kts | 315° |
| 2026-05-06 19:26 | 8.57371 | -74.04202 | 21047 ft | 266 kts | 315° |
| 2026-05-06 19:27 | 8.58611 | -74.05599 | 21074 ft | 267 kts | 315° |
| 2026-05-06 19:27 | 8.59836 | -74.06978 | 21130 ft | 267 kts | 315° |
| 2026-05-06 19:27 | 8.61097 | -74.08390 | 21206 ft | 266 kts | 315° |
| 2026-05-06 19:27 | 8.62313 | -74.09763 | 21209 ft | 266 kts | 315° |
| 2026-05-06 19:28 | 8.63558 | -74.11163 | 21220 ft | 266 kts | 315° |
| 2026-05-06 19:28 | 8.64800 | -74.12555 | 21238 ft | 266 kts | 315° |
| 2026-05-06 19:28 | 8.66038 | -74.13952 | 21251 ft | 266 kts | 315° |
| 2026-05-06 19:28 | 8.67263 | -74.15329 | 21247 ft | 266 kts | 315° |
| 2026-05-06 19:29 | 8.68518 | -74.16739 | 21244 ft | 266 kts | 315° |
| 2026-05-06 19:29 | 8.69732 | -74.18103 | 21248 ft | 266 kts | 315° |
| 2026-05-06 19:29 | 8.70998 | -74.19479 | 21241 ft | 265 kts | 318° |
| 2026-05-06 19:29 | 8.72325 | -74.20774 | 21236 ft | 265 kts | 320° |
| 2026-05-06 19:30 | 8.73657 | -74.22055 | 21237 ft | 265 kts | 319° |
| 2026-05-06 19:30 | 8.74988 | -74.23355 | 21236 ft | 265 kts | 318° |
| 2026-05-06 19:30 | 8.76296 | -74.24677 | 21242 ft | 265 kts | 318° |
| 2026-05-06 19:30 | 8.77579 | -74.25980 | 21238 ft | 265 kts | 318° |
| 2026-05-06 19:31 | 8.78882 | -74.27304 | 21241 ft | 265 kts | 318° |
| 2026-05-06 19:31 | 8.80183 | -74.28624 | 21244 ft | 265 kts | 318° |
| 2026-05-06 19:31 | 8.82783 | -74.31271 | 21243 ft | 265 kts | 318° |
| 2026-05-06 19:32 | 8.84094 | -74.32604 | 21245 ft | 265 kts | 318° |
| 2026-05-06 19:32 | 8.85395 | -74.33924 | 21249 ft | 265 kts | 318° |
| 2026-05-06 19:32 | 8.86697 | -74.35249 | 21246 ft | 265 kts | 318° |
| 2026-05-06 19:32 | 8.87978 | -74.36552 | 21250 ft | 265 kts | 318° |
| 2026-05-06 19:33 | 8.89284 | -74.37878 | 21248 ft | 265 kts | 318° |
| 2026-05-06 19:33 | 8.90584 | -74.39206 | 21249 ft | 265 kts | 318° |
| 2026-05-06 19:33 | 8.91887 | -74.40533 | 21246 ft | 265 kts | 318° |
| 2026-05-06 19:33 | 8.93189 | -74.41856 | 21248 ft | 265 kts | 318° |
| 2026-05-06 19:34 | 8.94497 | -74.43186 | 21245 ft | 265 kts | 318° |
| 2026-05-06 19:34 | 8.95797 | -74.44511 | 21243 ft | 265 kts | 318° |
| 2026-05-06 19:34 | 8.97082 | -74.45817 | 21242 ft | 265 kts | 318° |
| 2026-05-06 19:34 | 8.98386 | -74.47141 | 21243 ft | 265 kts | 318° |
| 2026-05-06 19:35 | 8.99689 | -74.48471 | 21244 ft | 265 kts | 318° |
| 2026-05-06 19:35 | 9.00988 | -74.49793 | 21246 ft | 265 kts | 319° |
| 2026-05-06 19:35 | 9.02293 | -74.51120 | 21244 ft | 265 kts | 319° |
| 2026-05-06 19:35 | 9.03591 | -74.52442 | 21243 ft | 265 kts | 318° |
| 2026-05-06 19:36 | 9.04902 | -74.53777 | 21242 ft | 265 kts | 318° |
| 2026-05-06 19:36 | 9.06181 | -74.55080 | 21243 ft | 265 kts | 318° |
| 2026-05-06 19:36 | 9.07487 | -74.56409 | 21243 ft | 265 kts | 319° |
| 2026-05-06 19:36 | 9.08784 | -74.57732 | 21245 ft | 265 kts | 319° |
| 2026-05-06 19:37 | 9.10095 | -74.59068 | 21246 ft | 265 kts | 319° |
| 2026-05-06 19:37 | 9.11380 | -74.60378 | 21247 ft | 265 kts | 319° |
| 2026-05-06 19:37 | 9.12694 | -74.61716 | 21242 ft | 265 kts | 319° |
| 2026-05-06 19:37 | 9.13557 | -74.62598 | 21243 ft | 265 kts | 319° |
| 2026-05-06 19:38 | 9.15279 | -74.64355 | 21246 ft | 265 kts | 319° |
| 2026-05-06 19:38 | 9.16586 | -74.65687 | 21246 ft | 265 kts | 319° |
| 2026-05-06 19:38 | 9.17888 | -74.67014 | 21249 ft | 265 kts | 319° |
| 2026-05-06 19:38 | 9.19190 | -74.68340 | 21253 ft | 265 kts | 319° |
| 2026-05-06 19:39 | 9.20488 | -74.69667 | 21252 ft | 265 kts | 319° |
| 2026-05-06 19:39 | 9.21787 | -74.70995 | 21252 ft | 265 kts | 319° |
| 2026-05-06 19:39 | 9.23083 | -74.72318 | 21256 ft | 265 kts | 319° |
| 2026-05-06 19:39 | 9.24386 | -74.73643 | 21272 ft | 265 kts | 319° |
| 2026-05-06 19:40 | 9.25689 | -74.74970 | 21270 ft | 265 kts | 319° |
| 2026-05-06 19:40 | 9.26987 | -74.76298 | 21271 ft | 265 kts | 319° |
| 2026-05-06 19:40 | 9.28289 | -74.77626 | 21274 ft | 265 kts | 319° |
| 2026-05-06 19:40 | 9.29591 | -74.78955 | 21275 ft | 265 kts | 319° |
| 2026-05-06 19:41 | 9.30896 | -74.80285 | 21282 ft | 265 kts | 319° |
| 2026-05-06 19:41 | 9.32188 | -74.81607 | 21284 ft | 265 kts | 319° |
| 2026-05-06 19:41 | 9.33492 | -74.82938 | 21288 ft | 265 kts | 319° |
| 2026-05-06 19:41 | 9.34794 | -74.84265 | 21290 ft | 265 kts | 319° |
| 2026-05-06 19:42 | 9.36076 | -74.85577 | 21292 ft | 265 kts | 319° |
| 2026-05-06 19:42 | 9.37370 | -74.86898 | 21297 ft | 265 kts | 319° |
| 2026-05-06 19:42 | 9.38674 | -74.88229 | 21302 ft | 265 kts | 319° |
| 2026-05-06 19:42 | 9.39970 | -74.89552 | 21307 ft | 265 kts | 319° |
| 2026-05-06 19:43 | 9.41291 | -74.90900 | 21083 ft | 274 kts | 318° |
| 2026-05-06 19:43 | 9.42657 | -74.92298 | 20762 ft | 285 kts | 318° |
| 2026-05-06 19:43 | 9.44078 | -74.93751 | 20429 ft | 294 kts | 318° |
| 2026-05-06 19:43 | 9.45247 | -74.94949 | 20158 ft | 299 kts | 318° |
| 2026-05-06 19:44 | 9.46715 | -74.96449 | 19822 ft | 298 kts | 318° |
| 2026-05-06 19:44 | 9.48176 | -74.97941 | 19484 ft | 299 kts | 318° |
| 2026-05-06 19:44 | 9.49640 | -74.99430 | 19156 ft | 299 kts | 318° |
| 2026-05-06 19:44 | 9.51172 | -75.00860 | 18825 ft | 299 kts | 325° |
| 2026-05-06 19:45 | 9.52884 | -75.02075 | 18499 ft | 303 kts | 330° |
| 2026-05-06 19:45 | 9.54663 | -75.03231 | 18176 ft | 303 kts | 330° |
| 2026-05-06 19:45 | 9.56425 | -75.04410 | 17802 ft | 303 kts | 329° |
| 2026-05-06 19:45 | 9.58154 | -75.05638 | 17421 ft | 303 kts | 327° |
| 2026-05-06 19:46 | 9.59861 | -75.06870 | 17055 ft | 302 kts | 328° |
| 2026-05-06 19:46 | 9.61586 | -75.08101 | 16683 ft | 302 kts | 328° |
| 2026-05-06 19:46 | 9.63281 | -75.09309 | 16352 ft | 302 kts | 328° |
| 2026-05-06 19:46 | 9.64994 | -75.10528 | 15982 ft | 300 kts | 328° |
| 2026-05-06 19:47 | 9.66712 | -75.11758 | 15630 ft | 297 kts | 328° |
| 2026-05-06 19:47 | 9.68374 | -75.12940 | 15301 ft | 296 kts | 328° |
| 2026-05-06 19:47 | 9.70053 | -75.14143 | 14969 ft | 294 kts | 328° |
| 2026-05-06 19:47 | 9.71728 | -75.15333 | 14643 ft | 294 kts | 328° |
| 2026-05-06 19:48 | 9.73398 | -75.16518 | 14314 ft | 293 kts | 328° |
| 2026-05-06 19:48 | 9.75062 | -75.17695 | 14060 ft | 290 kts | 328° |
| 2026-05-06 19:48 | 9.76737 | -75.18840 | 13721 ft | 291 kts | 329° |
| 2026-05-06 19:48 | 9.78437 | -75.19971 | 13332 ft | 292 kts | 329° |
| 2026-05-06 19:49 | 9.80137 | -75.21107 | 12942 ft | 293 kts | 329° |
| 2026-05-06 19:49 | 9.81839 | -75.22244 | 12567 ft | 295 kts | 329° |
| 2026-05-06 19:49 | 9.83561 | -75.23395 | 12169 ft | 296 kts | 329° |
| 2026-05-06 19:49 | 9.85266 | -75.24535 | 11776 ft | 292 kts | 329° |
| 2026-05-06 19:50 | 9.86932 | -75.25647 | 11406 ft | 283 kts | 329° |
| 2026-05-06 19:50 | 9.88561 | -75.26738 | 11046 ft | 278 kts | 329° |
| 2026-05-06 19:50 | 9.90176 | -75.27820 | 10694 ft | 277 kts | 329° |
| 2026-05-06 19:50 | 9.91779 | -75.28896 | 10354 ft | 276 kts | 328° |
| 2026-05-06 19:51 | 9.93382 | -75.29964 | 10023 ft | 275 kts | 328° |
| 2026-05-06 19:51 | 9.94437 | -75.30669 | 9801 ft | 274 kts | 328° |
| 2026-05-06 19:51 | 9.96027 | -75.31734 | 9436 ft | 273 kts | 328° |
| 2026-05-06 19:51 | 9.97607 | -75.32793 | 9120 ft | 271 kts | 328° |
| 2026-05-06 19:52 | 9.99163 | -75.33831 | 8879 ft | 265 kts | 328° |
| 2026-05-06 19:52 | 10.00700 | -75.34861 | 8640 ft | 262 kts | 328° |
| 2026-05-06 19:52 | 10.02208 | -75.35872 | 8394 ft | 259 kts | 328° |
| 2026-05-06 19:52 | 10.03713 | -75.36878 | 8138 ft | 257 kts | 328° |
| 2026-05-06 19:53 | 10.05178 | -75.37859 | 7894 ft | 255 kts | 328° |
| 2026-05-06 19:53 | 10.06677 | -75.38863 | 7634 ft | 254 kts | 328° |
| 2026-05-06 19:53 | 10.08129 | -75.39836 | 7402 ft | 253 kts | 328° |
| 2026-05-06 19:53 | 10.09592 | -75.40815 | 7154 ft | 251 kts | 328° |
| 2026-05-06 19:54 | 10.11048 | -75.41791 | 6956 ft | 250 kts | 328° |
| 2026-05-06 19:54 | 10.12502 | -75.42763 | 6744 ft | 250 kts | 328° |
| 2026-05-06 19:54 | 10.13952 | -75.43734 | 6530 ft | 249 kts | 329° |
| 2026-05-06 19:54 | 10.15394 | -75.44698 | 6309 ft | 248 kts | 328° |
| 2026-05-06 19:55 | 10.16828 | -75.45658 | 6030 ft | 250 kts | 328° |
| 2026-05-06 19:55 | 10.18302 | -75.46649 | 5659 ft | 255 kts | 328° |
| 2026-05-06 19:55 | 10.19669 | -75.47561 | 5310 ft | 257 kts | 328° |
| 2026-05-06 19:55 | 10.21176 | -75.48568 | 4941 ft | 260 kts | 328° |
| 2026-05-06 19:56 | 10.22668 | -75.49572 | 4547 ft | 261 kts | 328° |
| 2026-05-06 19:56 | 10.24191 | -75.50590 | 4223 ft | 261 kts | 329° |
| 2026-05-06 19:56 | 10.25708 | -75.51604 | 3864 ft | 261 kts | 328° |
| 2026-05-06 19:56 | 10.26432 | -75.52032 | 3693 ft | 256 kts | 336° |
| 2026-05-06 19:57 | 10.27702 | -75.52315 | 3417 ft | 250 kts | 1° |
| 2026-05-06 19:57 | 10.29394 | -75.52124 | 3024 ft | 244 kts | 9° |
| 2026-05-06 19:57 | 10.31042 | -75.51889 | 2620 ft | 233 kts | 8° |
| 2026-05-06 19:57 | 10.32616 | -75.51723 | 2206 ft | 221 kts | 5° |
| 2026-05-06 19:58 | 10.34083 | -75.51637 | 1793 ft | 202 kts | 2° |
| 2026-05-06 19:58 | 10.35389 | -75.51587 | 1685 ft | 172 kts | 1° |
| 2026-05-06 19:58 | 10.36517 | -75.51559 | 1631 ft | 153 kts | 1° |
| 2026-05-06 19:58 | 10.37492 | -75.51531 | 1622 ft | 126 kts | 1° |
| 2026-05-06 19:59 | 10.38304 | -75.51505 | 1498 ft | 115 kts | 1° |
| 2026-05-06 19:59 | 10.39113 | -75.51487 | 1309 ft | 118 kts | 1° |
| 2026-05-06 19:59 | 10.39931 | -75.51466 | 1098 ft | 119 kts | 1° |
| 2026-05-06 19:59 | 10.40760 | -75.51443 | 853 ft | 119 kts | 1° |
| 2026-05-06 20:00 | 10.41573 | -75.51413 | 685 ft | 114 kts | 359° |
| 2026-05-06 20:00 | 10.42379 | -75.51371 | 389 ft | 120 kts | 1° |
| 2026-05-06 20:00 | 10.43189 | -75.51344 | 98 ft | 113 kts | 1° |
| 2026-05-06 20:00 | 10.43894 | -75.51324 | 11 ft | 84 kts | 2° |
| 2026-05-06 20:01 | 10.44156 | -75.51307 | 10 ft | 21 kts | 7° |
| 2026-05-06 20:01 | 10.44283 | -75.51297 | 11 ft | 15 kts | 1° |
| 2026-05-06 20:01 | 10.44364 | -75.51294 | 12 ft | 9 kts | 1° |
| 2026-05-06 20:01 | 10.44410 | -75.51292 | 13 ft | 5 kts | 5° |
| 2026-05-06 20:02 | 10.44440 | -75.51289 | 13 ft | 3 kts | 5° |
| 2026-05-06 20:02 | 10.44460 | -75.51288 | 22 ft | 3 kts | 3° |
| 2026-05-06 20:02 | 10.44490 | -75.51287 | 13 ft | 4 kts | 1° |
| 2026-05-06 20:02 | 10.44506 | -75.51289 | 13 ft | 1 kts | 351° |
| 2026-05-06 20:03 | 10.44509 | -75.51290 | 13 ft | 0 kts | 350° |
| 2026-05-06 20:03 | 10.44514 | -75.51291 | 13 ft | 1 kts | 349° |
| 2026-05-06 20:03 | 10.44526 | -75.51294 | 13 ft | 4 kts | 345° |
| 2026-05-06 20:03 | 10.44548 | -75.51313 | 13 ft | 5 kts | 290° |
| 2026-05-06 20:04 | 10.44552 | -75.51348 | 13 ft | 0 kts | 269° |
| 2026-05-06 20:04 | 10.44551 | -75.51352 | 13 ft | 4 kts | 269° |
| 2026-05-06 20:04 | 10.44554 | -75.51397 | 13 ft | 0 kts | 276° |
| 2026-05-06 20:05 | 10.44555 | -75.51405 | 13 ft | 2 kts | 276° |
| 2026-05-06 20:05 | 10.44556 | -75.51425 | 13 ft | 3 kts | 272° |
| 2026-05-06 20:05 | 10.44556 | -75.51452 | 13 ft | 2 kts | 262° |
| 2026-05-06 20:05 | 10.44548 | -75.51461 | 13 ft | 2 kts | 226° |
| 2026-05-06 20:06 | 10.44531 | -75.51463 | 13 ft | 4 kts | 183° |
| 2026-05-06 20:06 | 10.44491 | -75.51464 | 13 ft | 0 kts | 182° |